Time;durP1;ratioP1;P1;durP2;ratioP2;P2;SDS_P1;SDS_P2;PMS_P1;PMS_P2;Temp;Humidity;BMP_temperature;BMP_pressure;BME280_temperature;BME280_humidity;BME280_pressure;Samples;Min_cycle;Max_cycle;Signal;HPM_P1;HPM_P2
2024/01/12 00:02:04;;;;;;;28.30;26.50;;;;;;;-3.79;100.00;101157.34;5044819;28;20119;-54
2024/01/12 00:04:30;;;;;;;26.42;24.83;;;;;;;-3.81;100.00;101153.16;5037711;28;20054;-54
2024/01/12 00:06:57;;;;;;;25.35;23.85;;;;;;;-3.44;100.00;101143.75;5045221;28;20060;-56
2024/01/12 00:09:25;;;;;;;27.73;26.10;;;;;;;-3.87;100.00;101154.44;5045303;28;20056;-62
2024/01/12 00:11:54;;;;;;;34.33;32.33;;;;;;;-3.46;100.00;101151.63;5048530;28;20144;-60
2024/01/12 00:14:20;;;;;;;32.95;30.75;;;;;;;-3.61;100.00;101157.03;5048499;28;20556;-60
2024/01/12 00:16:48;;;;;;;29.67;27.58;;;;;;;-3.72;100.00;101158.59;5048461;28;20067;-60
2024/01/12 00:19:17;;;;;;;28.85;26.85;;;;;;;-3.17;100.00;101155.78;5048520;28;20095;-60
2024/01/12 00:21:47;;;;;;;37.45;34.85;;;;;;;-3.78;100.00;101156.41;5048279;28;20135;-60
2024/01/12 00:24:13;;;;;;;27.63;25.63;;;;;;;-3.80;100.00;101158.28;5043501;28;20060;-54
2024/01/12 00:26:41;;;;;;;29.48;27.05;;;;;;;-3.70;100.00;101156.72;5045266;28;20139;-60
2024/01/12 00:29:11;;;;;;;29.08;27.27;;;;;;;-3.72;100.00;101161.19;5039960;28;20052;-60
2024/01/12 00:31:38;;;;;;;29.38;27.48;;;;;;;-3.74;100.00;101157.88;5046950;28;20060;-54
2024/01/12 00:34:05;;;;;;;34.25;32.15;;;;;;;-3.88;100.00;101162.31;5044934;28;20076;-55
2024/01/12 00:36:32;;;;;;;25.70;24.00;;;;;;;-3.86;100.00;101171.66;5044445;28;20060;-54
2024/01/12 00:38:59;;;;;;;26.30;24.60;;;;;;;-4.00;100.00;101176.91;5046930;28;20666;-60
2024/01/12 00:41:26;;;;;;;26.60;24.90;;;;;;;-4.03;100.00;101161.56;5048085;28;20045;-55
2024/01/12 00:43:52;;;;;;;27.20;25.40;;;;;;;-4.10;100.00;101175.88;5046895;28;20435;-60
2024/01/12 00:46:21;;;;;;;27.67;25.70;;;;;;;-4.19;100.00;101167.75;5047962;28;20048;-60
2024/01/12 00:48:49;;;;;;;28.48;26.77;;;;;;;-4.18;100.00;101169.41;5046956;28;20045;-54
2024/01/12 00:51:16;;;;;;;22.10;20.70;;;;;;;-4.29;100.00;101160.69;5044767;28;20059;-54
2024/01/12 00:53:43;;;;;;;32.22;30.15;;;;;;;-4.39;100.00;101156.09;5046114;28;20511;-60
2024/01/12 00:56:10;;;;;;;35.95;33.75;;;;;;;-4.47;100.00;101167.88;5047913;28;20049;-60
2024/01/12 00:58:37;;;;;;;33.25;31.05;;;;;;;-4.60;100.00;101167.78;5050253;28;20150;-53
2024/01/12 01:01:04;;;;;;;28.88;26.90;;;;;;;-4.69;100.00;101164.03;5047881;28;20060;-54
2024/01/12 01:03:32;;;;;;;25.85;24.05;;;;;;;-4.69;100.00;101160.59;5050557;28;20446;-54
2024/01/12 01:05:59;;;;;;;28.40;26.50;;;;;;;-4.52;100.00;101157.78;5049366;28;20045;-60
2024/01/12 01:08:26;;;;;;;30.15;27.55;;;;;;;-4.66;100.00;101161.25;5049708;28;20051;-54
2024/01/12 01:10:53;;;;;;;26.75;24.95;;;;;;;-4.58;100.00;101163.34;5050593;28;20064;-54
2024/01/12 01:13:20;;;;;;;27.25;25.45;;;;;;;-4.84;100.00;101158.06;5049110;28;20458;-54
2024/01/12 01:15:49;;;;;;;23.88;22.27;;;;;;;-4.89;100.00;101161.88;5050647;28;20438;-60
2024/01/12 01:18:17;;;;;;;29.45;27.40;;;;;;;-5.02;100.00;101151.44;5050206;28;20599;-60
2024/01/12 01:20:45;;;;;;;26.75;25.05;;;;;;;-5.00;100.00;101162.50;5049074;28;20052;-54
2024/01/12 01:23:12;;;;;;;24.27;22.35;;;;;;;-5.06;100.00;101158.53;5048067;28;20589;-54
2024/01/12 01:25:41;;;;;;;22.80;21.30;;;;;;;-5.14;100.00;101155.59;5039649;28;20168;-54
2024/01/12 01:28:08;;;;;;;28.63;26.55;;;;;;;-5.11;100.00;101164.97;5050029;28;20525;-54
2024/01/12 01:30:35;;;;;;;26.92;25.27;;;;;;;-5.08;100.00;101168.19;5049565;28;20056;-54
2024/01/12 01:33:02;;;;;;;25.73;24.13;;;;;;;-5.09;100.00;101157.91;5051135;28;20045;-60
2024/01/12 01:35:29;;;;;;;24.92;23.13;;;;;;;-5.11;100.00;101163.19;5048444;28;20045;-60
2024/01/12 01:37:57;;;;;;;25.42;23.48;;;;;;;-5.06;100.00;101162.88;5049536;28;20057;-54
2024/01/12 01:40:24;;;;;;;29.25;27.48;;;;;;;-5.13;100.00;101157.25;5044728;28;20743;-54
2024/01/12 01:42:50;;;;;;;29.80;27.98;;;;;;;-5.25;100.00;101152.84;5045546;28;20057;-55
2024/01/12 01:45:17;;;;;;;24.10;22.60;;;;;;;-5.25;100.00;101157.19;5049314;28;20092;-54
2024/01/12 01:47:45;;;;;;;26.25;24.55;;;;;;;-5.12;100.00;101152.91;5046122;28;20422;-54
2024/01/12 01:50:14;;;;;;;25.20;23.60;;;;;;;-5.16;100.00;101149.69;5047702;28;20060;-54
2024/01/12 01:52:41;;;;;;;27.38;25.52;;;;;;;-5.28;100.00;101160.78;5046023;28;20049;-60
2024/01/12 01:55:12;;;;;;;27.60;25.70;;;;;;;-5.03;100.00;101159.28;5050683;28;20056;-54
2024/01/12 01:57:42;;;;;;;23.80;22.30;;;;;;;-5.10;100.00;101161.44;5049590;28;20049;-60
2024/01/12 02:00:13;;;;;;;26.30;24.25;;;;;;;-5.20;100.00;101166.34;5049887;28;20081;-54
2024/01/12 02:02:43;;;;;;;26.45;24.83;;;;;;;-5.12;100.00;101181.41;5048640;28;20537;-60
2024/01/12 02:05:13;;;;;;;24.45;22.85;;;;;;;-5.32;100.00;101180.88;5045340;28;20045;-60
2024/01/12 02:07:43;;;;;;;25.90;24.20;;;;;;;-5.23;100.00;101199.38;5048001;28;20052;-54
2024/01/12 02:10:14;;;;;;;26.10;24.23;;;;;;;-5.31;100.00;101207.59;5049008;28;20049;-55
2024/01/12 02:12:41;;;;;;;22.65;21.15;;;;;;;-5.30;100.00;101220.44;5045873;28;20072;-59
2024/01/12 02:15:09;;;;;;;27.00;25.23;;;;;;;-5.27;100.00;101223.75;5041295;28;20494;-54
2024/01/12 02:17:36;;;;;;;24.30;22.80;;;;;;;-5.42;100.00;101218.56;5040511;28;20524;-55
2024/01/12 02:20:03;;;;;;;27.35;25.55;;;;;;;-5.53;100.00;101220.97;5049228;28;20052;-54
2024/01/12 02:22:31;;;;;;;23.80;22.10;;;;;;;-5.60;100.00;101196.34;5046658;28;20126;-54
2024/01/12 02:24:58;;;;;;;23.65;22.05;;;;;;;-5.76;100.00;101204.19;5049387;28;20052;-60
2024/01/12 02:27:25;;;;;;;25.80;23.75;;;;;;;-5.45;100.00;101207.56;5048202;28;20052;-60
2024/01/12 02:29:53;;;;;;;27.17;25.25;;;;;;;-5.34;100.00;101200.00;5049128;28;20059;-54
2024/01/12 02:32:20;;;;;;;32.53;28.20;;;;;;;-5.32;100.00;101201.56;5049364;28;20070;-54
2024/01/12 02:34:47;;;;;;;26.52;24.80;;;;;;;-5.36;100.00;101194.91;5048138;28;20049;-60
2024/01/12 02:37:13;;;;;;;26.38;24.58;;;;;;;-5.54;100.00;101189.09;5049908;28;20053;-60
2024/01/12 02:39:42;;;;;;;27.63;25.73;;;;;;;-5.40;100.00;101196.00;5050169;28;20425;-54
2024/01/12 02:42:09;;;;;;;25.90;24.40;;;;;;;-5.34;100.00;101192.22;5046924;28;20067;-58
2024/01/12 02:44:35;;;;;;;26.20;24.70;;;;;;;-5.38;100.00;101201.13;5049108;28;20604;-54
2024/01/12 02:47:02;;;;;;;24.58;23.17;;;;;;;-5.36;100.00;101194.91;5045914;28;20048;-54
2024/01/12 02:49:29;;;;;;;29.00;27.50;;;;;;;-5.35;100.00;101188.81;5047739;28;20072;-60
2024/01/12 02:51:56;;;;;;;24.17;22.77;;;;;;;-5.35;100.00;101200.94;5047502;28;20060;-54
2024/01/12 02:54:23;;;;;;;23.00;21.60;;;;;;;-5.39;100.00;101202.03;5046618;28;20068;-60
2024/01/12 02:56:51;;;;;;;21.40;20.10;;;;;;;-5.41;100.00;101196.94;5048421;28;20473;-55
2024/01/12 02:59:18;;;;;;;23.92;22.42;;;;;;;-5.90;100.00;101181.72;5047932;28;20053;-60
2024/01/12 03:01:45;;;;;;;25.45;24.05;;;;;;;-5.47;100.00;101186.97;5047915;28;20615;-55
2024/01/12 03:04:12;;;;;;;23.05;21.85;;;;;;;-5.25;100.00;101185.66;5046833;28;20051;-60
2024/01/12 03:06:39;;;;;;;25.92;24.15;;;;;;;-5.28;100.00;101183.25;5049355;28;20529;-60
2024/01/12 03:09:05;;;;;;;25.40;24.00;;;;;;;-5.31;100.00;101199.81;5049176;28;20060;-54
2024/01/12 03:11:32;;;;;;;28.58;26.85;;;;;;;-5.17;100.00;101191.22;5046907;28;20099;-60
2024/01/12 03:14:01;;;;;;;22.63;21.33;;;;;;;-5.11;100.00;101199.47;5049569;28;20548;-60
2024/01/12 03:16:28;;;;;;;25.38;23.88;;;;;;;-5.16;100.00;101187.72;5047075;28;20060;-60
2024/01/12 03:18:56;;;;;;;24.63;23.23;;;;;;;-5.25;100.00;101194.28;5049071;28;20045;-59
2024/01/12 03:21:23;;;;;;;21.48;20.20;;;;;;;-4.96;100.00;101191.66;5047903;28;20065;-53
2024/01/12 03:23:49;;;;;;;22.05;20.65;;;;;;;-4.96;100.00;101189.06;5048049;28;20494;-54
2024/01/12 03:26:16;;;;;;;22.88;21.48;;;;;;;-4.76;100.00;101186.06;5047357;28;20119;-54
2024/01/12 03:28:43;;;;;;;24.38;22.25;;;;;;;-4.68;100.00;101188.22;5045544;28;20072;-54
2024/01/12 03:31:12;;;;;;;24.95;22.67;;;;;;;-4.67;100.00;101184.69;5046037;28;20052;-59
2024/01/12 03:33:43;;;;;;;23.20;21.80;;;;;;;-4.65;100.00;101182.81;5048916;28;20458;-59
2024/01/12 03:36:10;;;;;;;23.52;22.33;;;;;;;-4.68;100.00;101188.22;5041899;28;20083;-54
2024/01/12 03:38:37;;;;;;;24.40;23.00;;;;;;;-4.72;100.00;101182.38;5046346;28;20052;-55
2024/01/12 03:41:05;;;;;;;23.02;21.83;;;;;;;-4.78;100.00;101185.38;5045709;28;20430;-54
2024/01/12 03:43:32;;;;;;;21.80;20.50;;;;;;;-4.61;100.00;101190.31;5043356;28;20049;-54
2024/01/12 03:45:59;;;;;;;22.65;21.27;;;;;;;-4.49;100.00;101190.47;5040774;28;20044;-60
2024/01/12 03:48:29;;;;;;;23.48;22.00;;;;;;;-4.45;100.00;101181.56;5049354;28;20063;-60
2024/01/12 03:50:56;;;;;;;21.58;20.38;;;;;;;-4.53;100.00;101179.47;5039931;28;20057;-54
2024/01/12 03:53:24;;;;;;;22.25;20.95;;;;;;;-4.57;100.00;101198.72;5048552;28;20503;-60
2024/01/12 03:55:50;;;;;;;25.48;23.10;;;;;;;-4.44;100.00;101193.59;5046997;28;20064;-54
2024/01/12 03:58:17;;;;;;;22.35;20.95;;;;;;;-4.44;100.00;101209.16;5047297;28;20056;-60
2024/01/12 04:00:44;;;;;;;22.80;21.30;;;;;;;-4.36;100.00;101209.50;5045392;28;20060;-54
2024/01/12 04:03:11;;;;;;;23.25;21.90;;;;;;;-4.35;100.00;101203.41;5048466;28;20049;-60
2024/01/12 04:05:42;;;;;;;23.08;21.77;;;;;;;-4.41;100.00;101196.84;5045831;28;20048;-54
2024/01/12 04:08:09;;;;;;;22.20;20.70;;;;;;;-4.35;100.00;101205.16;5046349;28;20555;-54
2024/01/12 04:10:37;;;;;;;24.30;22.60;;;;;;;-4.33;100.00;101218.84;5044459;28;20061;-54
2024/01/12 04:13:04;;;;;;;22.08;20.65;;;;;;;-4.28;100.00;101215.03;5045494;28;20107;-60
2024/01/12 04:15:30;;;;;;;22.77;21.10;;;;;;;-4.30;100.00;101216.06;5046656;28;20053;-54
2024/01/12 04:17:57;;;;;;;20.73;19.52;;;;;;;-4.32;100.00;101221.34;5042836;28;20514;-60
2024/01/12 04:20:24;;;;;;;20.23;19.02;;;;;;;-4.11;100.00;101223.47;5046220;28;20061;-54
2024/01/12 04:22:52;;;;;;;20.90;19.70;;;;;;;-4.25;100.00;101235.59;5042129;28;20052;-54
2024/01/12 04:25:19;;;;;;;21.50;20.00;;;;;;;-4.04;100.00;101248.13;5045914;28;20089;-60
2024/01/12 04:27:46;;;;;;;22.42;20.98;;;;;;;-4.00;100.00;101254.78;5046668;28;20067;-54
2024/01/12 04:30:13;;;;;;;26.50;24.33;;;;;;;-3.91;100.00;101256.78;5045202;28;20064;-60
2024/01/12 04:32:40;;;;;;;26.25;24.27;;;;;;;-3.74;100.00;101266.06;5047751;28;20492;-60
2024/01/12 04:35:08;;;;;;;24.25;22.95;;;;;;;-3.75;100.00;101275.63;5045544;28;20053;-54
2024/01/12 04:37:35;;;;;;;25.38;23.98;;;;;;;-3.81;100.00;101283.81;5046137;28;20044;-60
2024/01/12 04:40:05;;;;;;;25.98;24.38;;;;;;;-3.88;100.00;101276.50;5043036;28;20048;-60
2024/01/12 04:42:31;;;;;;;26.52;24.98;;;;;;;-3.74;100.00;101285.06;5041178;28;20166;-54
2024/01/12 04:44:58;;;;;;;24.67;22.48;;;;;;;-3.67;100.00;101279.47;5042793;28;20485;-54
2024/01/12 04:47:25;;;;;;;25.83;23.85;;;;;;;-3.62;100.00;101287.81;5043510;28;20052;-54
2024/01/12 04:49:52;;;;;;;26.92;24.73;;;;;;;-3.70;100.00;101293.50;5043196;28;20055;-60
2024/01/12 04:52:19;;;;;;;24.52;22.38;;;;;;;-3.61;100.00;101297.25;5047123;28;20068;-60
2024/01/12 04:54:46;;;;;;;25.45;23.15;;;;;;;-3.56;100.00;101305.59;5045572;28;20056;-55
2024/01/12 04:57:14;;;;;;;27.52;25.13;;;;;;;-3.61;100.00;101299.84;5046745;28;20053;-60
2024/01/12 04:59:42;;;;;;;53.03;48.13;;;;;;;-3.61;100.00;101305.88;5046235;28;20116;-60
2024/01/12 05:02:09;;;;;;;53.65;48.00;;;;;;;-3.64;100.00;101306.06;5047250;28;20049;-59
2024/01/12 05:04:38;;;;;;;29.38;26.27;;;;;;;-3.58;100.00;101325.63;5042635;28;20060;-60
2024/01/12 05:07:05;;;;;;;23.92;22.33;;;;;;;-3.97;100.00;101315.09;4982172;28;20049;-54
2024/01/12 05:09:32;;;;;;;25.95;24.35;;;;;;;-3.70;100.00;101322.06;5036082;28;20122;-54
2024/01/12 05:11:59;;;;;;;28.52;26.38;;;;;;;-3.77;100.00;101319.03;5042339;28;20072;-55
2024/01/12 05:14:27;;;;;;;21.70;20.20;;;;;;;-3.65;100.00;101319.16;5043150;28;20514;-54
2024/01/12 05:16:54;;;;;;;22.05;20.65;;;;;;;-3.59;100.00;101317.00;5044959;28;20049;-55
2024/01/12 05:19:21;;;;;;;24.80;23.20;;;;;;;-3.60;100.00;101312.75;5043849;28;20053;-55
2024/01/12 05:21:48;;;;;;;23.23;21.73;;;;;;;-3.60;100.00;101311.91;5042925;28;20053;-55
2024/01/12 05:24:15;;;;;;;22.73;21.33;;;;;;;-3.51;100.00;101317.34;5044160;28;20076;-55
2024/01/12 05:26:42;;;;;;;22.95;21.45;;;;;;;-3.59;100.00;101314.41;5045821;28;20049;-61
2024/01/12 05:29:10;;;;;;;24.58;22.65;;;;;;;-3.54;100.00;101320.16;5045406;28;20052;-60
2024/01/12 05:31:38;;;;;;;23.80;22.27;;;;;;;-3.67;100.00;101318.44;5045239;28;20469;-55
2024/01/12 05:34:05;;;;;;;28.92;26.83;;;;;;;-3.67;100.00;101308.88;5043916;28;20132;-55
2024/01/12 05:36:32;;;;;;;25.45;23.35;;;;;;;-3.70;100.00;101315.09;5042930;28;20060;-60
2024/01/12 05:38:59;;;;;;;25.23;23.67;;;;;;;-3.82;100.00;101318.47;5044553;28;20045;-60
2024/01/12 05:41:26;;;;;;;23.45;21.90;;;;;;;-3.72;100.00;101322.16;5046165;28;20515;-55
2024/01/12 05:43:52;;;;;;;24.15;22.30;;;;;;;-4.04;100.00;101331.16;5046596;28;20053;-60
2024/01/12 05:46:20;;;;;;;22.55;21.15;;;;;;;-3.99;100.00;101331.72;5050230;28;20075;-55
2024/01/12 05:48:48;;;;;;;21.77;20.27;;;;;;;-3.97;100.00;101338.44;5046903;28;20078;-60
2024/01/12 05:51:15;;;;;;;24.00;22.30;;;;;;;-3.89;100.00;101340.56;5050559;28;20540;-60
2024/01/12 05:53:42;;;;;;;21.60;20.20;;;;;;;-3.77;100.00;101350.19;5050340;28;20049;-60
2024/01/12 05:56:12;;;;;;;20.20;18.88;;;;;;;-3.86;100.00;101344.75;5048615;28;20048;-55
2024/01/12 05:58:39;;;;;;;20.38;19.08;;;;;;;-3.83;100.00;101352.34;5045311;28;20349;-55
2024/01/12 06:01:06;;;;;;;20.88;19.42;;;;;;;-3.85;100.00;101351.59;5044172;28;20044;-55
2024/01/12 06:03:33;;;;;;;21.52;20.02;;;;;;;-4.04;100.00;101344.97;5049606;28;20064;-60
2024/01/12 06:06:01;;;;;;;19.92;18.63;;;;;;;-4.01;100.00;101349.97;5048005;28;20186;-55
2024/01/12 06:08:29;;;;;;;20.55;18.90;;;;;;;-3.67;100.00;101354.78;5043033;28;20045;-55
2024/01/12 06:10:55;;;;;;;23.52;22.02;;;;;;;-3.60;100.00;101358.63;5045599;28;20052;-55
2024/01/12 06:13:23;;;;;;;20.58;19.38;;;;;;;0.36;100.00;101367.31;5048093;28;20503;-60
2024/01/12 06:15:50;;;;;;;21.83;20.42;;;;;;;-2.33;100.00;101370.94;5046634;28;20561;-61
2024/01/12 06:18:17;;;;;;;24.15;22.63;;;;;;;-3.31;100.00;101367.97;5048447;28;20080;-62
2024/01/12 06:20:43;;;;;;;21.55;20.25;;;;;;;-3.54;100.00;101384.22;5048428;28;20044;-60
2024/01/12 06:23:12;;;;;;;23.65;22.15;;;;;;;-3.57;100.00;101372.28;5047956;28;20056;-55
2024/01/12 06:25:39;;;;;;;21.92;20.63;;;;;;;-3.73;100.00;101369.81;5046600;28;20061;-55
2024/01/12 06:28:06;;;;;;;19.95;18.75;;;;;;;-3.91;100.00;101371.81;5045787;28;20056;-55
2024/01/12 06:30:33;;;;;;;23.40;22.00;;;;;;;-3.63;100.00;101375.28;5045913;28;20048;-55
2024/01/12 06:33:00;;;;;;;20.42;19.23;;;;;;;-3.56;100.00;101384.31;5048026;28;20056;-60
2024/01/12 06:35:27;;;;;;;22.77;21.05;;;;;;;-3.49;100.00;101389.97;5045900;28;20079;-60
2024/01/12 06:37:54;;;;;;;23.75;22.15;;;;;;;-3.56;100.00;101396.47;5040007;28;20052;-60
2024/01/12 06:40:22;;;;;;;20.42;19.13;;;;;;;-3.39;100.00;101404.00;5047044;28;20248;-55
2024/01/12 06:42:49;;;;;;;21.25;19.90;;;;;;;-3.35;100.00;101395.09;5045585;28;20423;-55
2024/01/12 06:45:16;;;;;;;20.50;19.30;;;;;;;-3.30;100.00;101393.06;5046562;28;20545;-60
2024/01/12 06:47:44;;;;;;;21.05;19.75;;;;;;;-3.22;100.00;101395.97;5046809;28;20427;-55
2024/01/12 06:50:11;;;;;;;20.33;19.02;;;;;;;-3.22;100.00;101397.72;5047562;28;20049;-60
2024/01/12 06:52:38;;;;;;;20.35;19.05;;;;;;;-3.28;100.00;101403.31;5048356;28;20079;-55
2024/01/12 06:55:05;;;;;;;20.30;19.00;;;;;;;-3.26;100.00;101407.50;5047036;28;20053;-54
2024/01/12 06:57:34;;;;;;;20.88;19.58;;;;;;;-3.18;100.00;101411.34;5045190;28;20064;-55
2024/01/12 07:00:01;;;;;;;19.70;18.40;;;;;;;-3.09;100.00;101413.34;5047123;28;20056;-60
2024/01/12 07:02:27;;;;;;;23.17;21.25;;;;;;;-3.07;100.00;101419.28;5048522;28;20056;-55
2024/01/12 07:04:54;;;;;;;21.55;20.17;;;;;;;-3.10;100.00;101420.31;5044301;28;20458;-55
2024/01/12 07:07:21;;;;;;;23.90;22.08;;;;;;;-3.10;100.00;101428.13;5046093;28;20063;-55
2024/01/12 07:09:48;;;;;;;26.15;24.40;;;;;;;-2.98;100.00;101428.25;5040342;28;20474;-55
2024/01/12 07:12:15;;;;;;;24.90;23.20;;;;;;;-2.83;100.00;101432.44;5048920;28;20485;-60
2024/01/12 07:14:43;;;;;;;22.50;21.10;;;;;;;-2.80;100.00;101442.63;5048806;28;20118;-60
2024/01/12 07:17:10;;;;;;;24.58;23.08;;;;;;;-3.04;100.00;101434.69;5048804;28;20053;-61
2024/01/12 07:19:37;;;;;;;25.10;23.27;;;;;;;-2.91;100.00;101432.09;5047403;28;20343;-55
2024/01/12 07:22:05;;;;;;;22.38;20.98;;;;;;;-2.74;100.00;101441.41;5047631;28;20572;-60
2024/01/12 07:24:32;;;;;;;25.25;23.70;;;;;;;-2.82;100.00;101434.91;5048589;28;20056;-60
2024/01/12 07:26:59;;;;;;;25.65;23.95;;;;;;;-2.80;100.00;101445.25;5048798;28;20653;-60
2024/01/12 07:29:25;;;;;;;25.08;23.10;;;;;;;-2.76;100.00;101463.13;5048513;28;20065;-60
2024/01/12 07:31:54;;;;;;;21.90;20.55;;;;;;;-2.60;100.00;101464.72;5048086;28;20048;-61
2024/01/12 07:34:21;;;;;;;23.40;21.67;;;;;;;-2.72;100.00;101466.38;5047947;28;20049;-55
2024/01/12 07:36:48;;;;;;;24.95;22.45;;;;;;;-2.59;100.00;101462.00;5047189;28;20049;-60
2024/01/12 07:39:15;;;;;;;21.10;19.70;;;;;;;-2.47;100.00;101464.72;5048835;28;20041;-61
2024/01/12 07:41:43;;;;;;;20.65;19.30;;;;;;;-2.48;100.00;101476.06;5048473;28;20057;-55
2024/01/12 07:44:11;;;;;;;20.90;19.70;;;;;;;-2.45;100.00;101481.06;5045984;28;20044;-59
2024/01/12 07:46:39;;;;;;;23.60;22.00;;;;;;;-2.35;100.00;101487.31;5048823;28;20089;-60
2024/01/12 07:49:08;;;;;;;22.80;21.20;;;;;;;-2.37;100.00;101479.59;5045953;28;20052;-55
2024/01/12 07:51:34;;;;;;;20.63;19.23;;;;;;;-2.33;100.00;101488.91;5033326;28;20045;-60
2024/01/12 07:54:01;;;;;;;22.05;20.65;;;;;;;-2.29;100.00;101494.72;5046323;28;20052;-55
2024/01/12 07:56:28;;;;;;;22.60;21.08;;;;;;;-2.13;100.00;101495.34;5045776;28;20052;-55
2024/01/12 07:58:57;;;;;;;24.35;22.55;;;;;;;-2.16;100.00;101505.13;5045750;28;20059;-55
2024/01/12 08:01:24;;;;;;;22.98;21.50;;;;;;;-2.37;100.00;101505.63;5041301;28;20056;-55
2024/01/12 08:03:52;;;;;;;24.00;21.60;;;;;;;-2.15;100.00;101499.81;5045460;28;20052;-55
2024/01/12 08:06:20;;;;;;;22.80;21.30;;;;;;;-2.06;100.00;101513.97;5044265;28;20080;-60
2024/01/12 08:08:46;;;;;;;24.10;22.50;;;;;;;-2.18;100.00;101507.00;5047491;28;20049;-55
2024/01/12 08:11:13;;;;;;;24.73;22.92;;;;;;;-2.22;100.00;101508.97;5039422;28;20499;-60
2024/01/12 08:13:40;;;;;;;21.70;20.20;;;;;;;-2.35;100.00;101514.19;5047720;28;20048;-55
2024/01/12 08:16:07;;;;;;;19.98;18.67;;;;;;;-2.24;100.00;101515.22;5045944;28;20059;-55
2024/01/12 08:18:35;;;;;;;20.85;19.55;;;;;;;-2.04;100.00;101517.31;5045898;28;20477;-60
2024/01/12 08:21:02;;;;;;;21.20;19.90;;;;;;;-1.89;100.00;101518.03;5047159;28;20072;-55
2024/01/12 08:23:30;;;;;;;21.85;20.45;;;;;;;-2.06;100.00;101519.16;5045152;28;20049;-55
2024/01/12 08:25:57;;;;;;;25.80;24.02;;;;;;;-2.20;100.00;101527.94;5048050;28;20056;-60
2024/01/12 08:28:24;;;;;;;23.23;21.73;;;;;;;-2.38;100.00;101526.56;5047694;28;20053;-60
2024/01/12 08:30:51;;;;;;;24.45;22.92;;;;;;;-2.14;100.00;101537.94;5047311;28;20060;-60
2024/01/12 08:33:18;;;;;;;25.45;23.30;;;;;;;-2.25;100.00;101534.38;5047152;28;20056;-60
2024/01/12 08:35:44;;;;;;;23.67;22.08;;;;;;;-2.15;100.00;101538.88;5046482;28;20067;-54
2024/01/12 08:38:11;;;;;;;22.50;21.00;;;;;;;-2.02;100.00;101544.06;5047131;28;20461;-60
2024/01/12 08:40:43;;;;;;;22.73;21.23;;;;;;;-2.08;100.00;101547.09;5047041;28;20049;-55
2024/01/12 08:43:13;;;;;;;23.52;21.92;;;;;;;-2.08;100.00;101549.69;5046104;28;20434;-60
2024/01/12 08:45:43;;;;;;;23.60;21.88;;;;;;;-2.07;100.00;101540.94;5046747;28;20060;-55
2024/01/12 08:48:10;;;;;;;22.95;20.85;;;;;;;-2.09;100.00;101548.88;5046181;28;20053;-60
2024/01/12 08:50:37;;;;;;;25.35;23.55;;;;;;;-2.08;100.00;101541.91;5047331;28;20434;-55
2024/01/12 08:53:04;;;;;;;25.42;23.73;;;;;;;-2.26;100.00;101543.97;5045253;28;20499;-55
2024/01/12 08:55:31;;;;;;;23.52;21.92;;;;;;;-2.11;100.00;101542.94;5045388;28;20076;-55
2024/01/12 08:57:59;;;;;;;23.55;21.95;;;;;;;-2.08;100.00;101555.75;5036851;28;20053;-60
2024/01/12 09:00:26;;;;;;;24.10;22.50;;;;;;;-2.12;100.00;101553.44;5047051;28;20049;-58
2024/01/12 09:02:53;;;;;;;24.98;22.63;;;;;;;-2.14;100.00;101552.72;5045919;28;20053;-54
2024/01/12 09:05:20;;;;;;;22.70;21.05;;;;;;;-2.22;100.00;101555.00;5046808;28;20072;-60
2024/01/12 09:07:47;;;;;;;22.38;20.77;;;;;;;-2.26;100.00;101551.75;5045598;28;20139;-55
2024/01/12 09:10:15;;;;;;;24.38;22.58;;;;;;;-1.90;100.00;101555.44;5037180;28;20455;-60
2024/01/12 09:12:42;;;;;;;24.20;22.60;;;;;;;-1.89;100.00;101559.69;5046045;28;20048;-60
2024/01/12 09:15:10;;;;;;;25.25;23.45;;;;;;;-1.95;100.00;101563.53;5047493;28;20045;-61
2024/01/12 09:17:37;;;;;;;23.05;21.45;;;;;;;-1.98;100.00;101568.13;5048203;28;20076;-60
2024/01/12 09:20:05;;;;;;;20.63;19.23;;;;;;;-1.94;100.00;101567.81;5051396;28;20053;-60
2024/01/12 09:22:32;;;;;;;22.85;21.35;;;;;;;-1.93;100.00;101569.50;5050012;28;20051;-60
2024/01/12 09:24:59;;;;;;;22.40;20.90;;;;;;;-1.83;100.00;101566.25;5050554;28;20053;-60
2024/01/12 09:27:25;;;;;;;22.23;20.67;;;;;;;-1.84;100.00;101573.25;5050608;28;20048;-60
2024/01/12 09:29:52;;;;;;;22.05;20.45;;;;;;;-1.97;100.00;101572.38;5050975;28;20661;-60
2024/01/12 09:32:21;;;;;;;24.77;22.88;;;;;;;-1.82;100.00;101570.53;5050756;28;20068;-60
2024/01/12 09:34:48;;;;;;;26.15;24.35;;;;;;;-1.77;100.00;101565.84;5051427;28;20505;-60
2024/01/12 09:37:14;;;;;;;22.10;20.60;;;;;;;-1.70;100.00;101578.31;5050591;28;20056;-54
2024/01/12 09:39:41;;;;;;;23.15;21.55;;;;;;;-1.98;100.00;101583.75;5048759;28;20056;-55
2024/01/12 09:42:11;;;;;;;21.10;19.70;;;;;;;-1.75;100.00;101588.25;5048454;28;20509;-55
2024/01/12 09:44:38;;;;;;;21.40;20.00;;;;;;;-1.93;100.00;101579.91;5048373;28;20442;-55
2024/01/12 09:47:06;;;;;;;20.52;19.13;;;;;;;-1.73;100.00;101580.31;5048411;28;20056;-55
2024/01/12 09:49:34;;;;;;;27.73;25.58;;;;;;;-1.98;100.00;101587.19;5047234;28;20059;-55
2024/01/12 09:52:01;;;;;;;23.38;21.77;;;;;;;-1.73;100.00;101588.94;5047895;28;20140;-55
2024/01/12 09:54:28;;;;;;;23.70;22.20;;;;;;;-1.65;100.00;101580.63;5048039;28;20064;-55
2024/01/12 09:56:57;;;;;;;23.63;22.15;;;;;;;-1.41;100.00;101585.91;5048392;28;20060;-55
2024/01/12 09:59:24;;;;;;;25.77;24.02;;;;;;;-1.25;100.00;101585.66;5046938;28;20576;-54
2024/01/12 10:01:52;;;;;;;26.08;24.25;;;;;;;-1.34;100.00;101589.75;5047680;28;20139;-55
2024/01/12 10:04:19;;;;;;;23.92;22.33;;;;;;;-1.26;100.00;101594.44;5044192;28;20581;-55
2024/01/12 10:06:47;;;;;;;22.27;20.83;;;;;;;-1.14;100.00;101590.97;5047661;28;20296;-55
2024/01/12 10:09:14;;;;;;;21.83;20.35;;;;;;;-1.12;100.00;101590.84;5045688;28;20522;-55
2024/01/12 10:11:42;;;;;;;24.30;22.77;;;;;;;-1.33;100.00;101591.44;5042265;28;20057;-55
2024/01/12 10:14:09;;;;;;;25.90;24.20;;;;;;;-1.25;100.00;101586.50;5044607;28;20462;-55
2024/01/12 10:16:39;;;;;;;22.92;21.50;;;;;;;-1.09;100.00;101586.28;5045626;28;20057;-60
2024/01/12 10:19:06;;;;;;;22.10;20.45;;;;;;;-1.14;100.00;101577.94;5048535;28;20502;-55
2024/01/12 10:21:39;;;;;;;22.10;20.52;;;;;;;-1.02;100.00;101584.88;5047948;28;20057;-58
2024/01/12 10:24:08;;;;;;;20.70;19.30;;;;;;;-1.10;100.00;101587.19;5049071;28;20488;-61
2024/01/12 10:26:35;;;;;;;22.50;20.98;;;;;;;-1.06;100.00;101583.44;5049815;28;20049;-62
2024/01/12 10:29:02;;;;;;;23.92;22.35;;;;;;;-1.05;100.00;101582.50;5049397;28;20049;-61
2024/01/12 10:31:30;;;;;;;23.27;21.67;;;;;;;-1.02;100.00;101581.44;5048517;28;20049;-55
2024/01/12 10:33:58;;;;;;;21.63;20.13;;;;;;;-1.05;100.00;101592.91;5047561;28;20056;-61
2024/01/12 10:36:28;;;;;;;21.25;19.85;;;;;;;-1.02;100.00;101584.88;5047758;28;20053;-55
2024/01/12 10:38:58;;;;;;;20.90;19.60;;;;;;;-1.00;100.00;101590.81;5048292;28;20060;-61
2024/01/12 10:41:27;;;;;;;22.98;21.42;;;;;;;-0.89;100.00;101597.03;5048100;28;20119;-55
2024/01/12 10:43:57;;;;;;;21.23;19.83;;;;;;;-0.90;100.00;101593.59;5046867;28;20057;-56
2024/01/12 10:46:31;;;;;;;22.05;20.52;;;;;;;-0.87;100.00;101596.00;5047650;28;20596;-56
2024/01/12 10:49:06;;;;;;;21.00;19.58;;;;;;;-0.88;100.00;101594.31;5046813;28;20088;-61
2024/01/12 10:51:37;;;;;;;22.33;20.73;;;;;;;-0.97;100.00;101603.66;5036445;28;20049;-56
2024/01/12 10:54:09;;;;;;;21.80;20.40;;;;;;;-0.92;100.00;101598.91;5047654;28;20093;-55
2024/01/12 10:56:38;;;;;;;21.85;20.45;;;;;;;-0.94;100.00;101595.59;5046973;28;20450;-55
2024/01/12 10:59:06;;;;;;;21.83;20.33;;;;;;;-0.83;100.00;101607.84;5047033;28;20057;-61
2024/01/12 11:01:34;;;;;;;22.95;21.00;;;;;;;-0.92;100.00;101606.75;5044652;28;20044;-55
2024/01/12 11:04:01;;;;;;;22.38;20.92;;;;;;;-0.96;100.00;101605.31;5046738;28;20056;-56